Time;durP1;ratioP1;P1;durP2;ratioP2;P2;SDS_P1;SDS_P2;PMS_P1;PMS_P2;Temp;Humidity;BMP_temperature;BMP_pressure;BME280_temperature;BME280_humidity;BME280_pressure;Samples;Min_cycle;Max_cycle;Signal;HPM_P1;HPM_P2
2023/09/26 00:01:06;;;;;;;10.02;6.93;;;16.50;99.90;;;;;;5034580;28;20040;-90
2023/09/26 00:03:32;;;;;;;13.18;7.07;;;16.50;99.90;;;;;;5026624;28;20091;-90
2023/09/26 00:05:58;;;;;;;10.02;7.25;;;16.50;99.90;;;;;;5034737;28;20041;-90
2023/09/26 00:08:23;;;;;;;11.60;7.97;;;16.50;99.90;;;;;;5034886;28;20044;-90
2023/09/26 00:10:49;;;;;;;8.80;4.68;;;16.50;99.90;;;;;;5018716;28;20043;-90
2023/09/26 00:13:15;;;;;;;11.10;5.72;;;16.40;99.90;;;;;;5018768;28;20048;-88
2023/09/26 00:15:41;;;;;;;10.57;5.03;;;16.40;99.90;;;;;;5034674;28;20072;-90
2023/09/26 00:18:07;;;;;;;9.70;6.45;;;16.30;99.90;;;;;;5019879;28;20040;-90
2023/09/26 00:20:38;;;;;;;11.15;7.57;;;16.30;99.90;;;;;;5019665;28;20091;-90
2023/09/26 00:23:07;;;;;;;10.20;5.05;;;16.40;99.90;;;;;;5035962;28;20049;-90
2023/09/26 00:25:33;;;;;;;10.45;7.53;;;16.30;99.90;;;;;;5035424;28;20492;-90
2023/09/26 00:27:58;;;;;;;11.20;7.10;;;16.30;99.90;;;;;;5031213;28;20052;-90
2023/09/26 00:30:28;;;;;;;11.30;6.85;;;16.30;99.90;;;;;;5034382;28;20041;-90
2023/09/26 00:32:53;;;;;;;9.68;5.50;;;16.30;99.90;;;;;;5017911;28;20069;-90
2023/09/26 00:35:19;;;;;;;10.80;7.35;;;16.20;99.90;;;;;;5031463;28;20072;-90
2023/09/26 00:37:49;;;;;;;10.25;5.65;;;16.10;99.90;;;;;;5009691;28;20094;-90
2023/09/26 00:40:15;;;;;;;11.95;7.93;;;16.10;99.90;;;;;;5019307;28;20523;-90
2023/09/26 00:42:48;;;;;;;11.98;7.88;;;16.00;99.90;;;;;;5022312;28;20037;-90
2023/09/26 00:45:14;;;;;;;13.88;8.70;;;16.00;99.90;;;;;;5016809;28;20037;-90
2023/09/26 00:47:43;;;;;;;10.63;5.95;;;16.00;99.90;;;;;;5033687;28;20090;-89
2023/09/26 00:50:12;;;;;;;12.93;8.75;;;15.90;99.90;;;;;;5018014;28;20167;-90
2023/09/26 00:52:47;;;;;;;12.77;8.35;;;15.80;99.90;;;;;;5017832;28;20040;-90
2023/09/26 00:55:16;;;;;;;12.98;8.80;;;15.90;99.90;;;;;;5017643;28;20029;-90
2023/09/26 00:57:42;;;;;;;9.27;4.97;;;15.80;99.90;;;;;;5017311;28;20044;-90
2023/09/26 01:00:12;;;;;;;12.73;9.20;;;15.70;99.90;;;;;;5017356;28;20063;-90
2023/09/26 01:02:38;;;;;;;11.05;8.15;;;15.60;99.90;;;;;;5017785;28;20488;-90
2023/09/26 01:05:05;;;;;;;10.80;8.52;;;15.70;99.90;;;;;;5033958;28;20052;-90
2023/09/26 01:07:31;;;;;;;12.05;5.65;;;15.60;99.90;;;;;;5033581;28;20598;-90
2023/09/26 01:09:57;;;;;;;10.40;5.28;;;15.60;99.90;;;;;;5017058;28;20484;-90
2023/09/26 01:12:23;;;;;;;12.40;9.13;;;15.40;99.90;;;;;;5017405;28;20400;-90
2023/09/26 01:14:48;;;;;;;13.65;5.85;;;15.40;99.90;;;;;;5017825;28;20132;-90
2023/09/26 01:17:14;;;;;;;11.70;9.00;;;15.30;99.90;;;;;;5033670;28;20128;-90
2023/09/26 01:19:40;;;;;;;9.85;5.10;;;15.30;99.90;;;;;;5017315;28;20051;-90
2023/09/26 01:22:05;;;;;;;10.80;8.80;;;15.30;99.90;;;;;;5033352;28;20052;-90
2023/09/26 01:24:31;;;;;;;11.20;8.73;;;15.30;99.90;;;;;;5033658;28;20055;-90
2023/09/26 01:26:56;;;;;;;13.55;6.80;;;15.30;99.90;;;;;;5033808;28;20045;-90
2023/09/26 01:29:22;;;;;;;10.30;6.13;;;15.20;99.90;;;;;;5017286;28;20533;-90
2023/09/26 01:31:48;;;;;;;11.73;8.65;;;15.10;99.90;;;;;;5018087;28;20073;-90
2023/09/26 01:34:14;;;;;;;12.55;9.45;;;15.10;99.90;;;;;;5023615;28;20079;-90
2023/09/26 01:36:40;;;;;;;11.85;9.23;;;15.10;99.90;;;;;;5023540;28;20125;-90
2023/09/26 01:39:05;;;;;;;11.23;8.75;;;15.10;99.90;;;;;;5039753;28;20045;-90
2023/09/26 01:41:31;;;;;;;12.57;9.75;;;15.10;99.90;;;;;;5040548;28;20091;-90
2023/09/26 01:43:57;;;;;;;11.43;9.50;;;15.10;99.90;;;;;;5058395;28;20036;-90
2023/09/26 01:46:23;;;;;;;16.40;5.95;;;15.00;99.90;;;;;;5023194;28;20041;-90
2023/09/26 01:48:49;;;;;;;11.68;9.20;;;14.90;99.90;;;;;;5023085;28;20446;-89
2023/09/26 01:51:15;;;;;;;10.13;5.47;;;14.90;99.90;;;;;;5023375;28;20036;-89
2023/09/26 01:53:40;;;;;;;10.13;6.05;;;14.80;99.90;;;;;;5039891;28;20102;-89
2023/09/26 01:56:06;;;;;;;12.60;9.50;;;14.80;99.90;;;;;;5040285;28;20052;-89
2023/09/26 01:58:32;;;;;;;11.25;9.70;;;14.80;99.90;;;;;;5023029;28;20044;-89
2023/09/26 02:00:58;;;;;;;10.98;6.13;;;14.80;99.90;;;;;;5039868;28;20041;-89
2023/09/26 02:03:24;;;;;;;12.70;9.60;;;14.70;99.90;;;;;;5023492;28;20045;-89
2023/09/26 02:05:51;;;;;;;11.35;9.68;;;14.60;99.90;;;;;;5039831;28;20044;-90
2023/09/26 02:08:17;;;;;;;9.52;5.40;;;14.70;99.90;;;;;;5023149;28;20048;-90
2023/09/26 02:10:43;;;;;;;11.43;9.40;;;14.60;99.90;;;;;;5023369;28;20037;-89
2023/09/26 02:13:11;;;;;;;15.32;10.27;;;14.60;99.90;;;;;;5039726;28;20048;-89
2023/09/26 02:15:36;;;;;;;10.18;5.47;;;14.50;99.90;;;;;;5057686;28;20118;-89
2023/09/26 02:18:02;;;;;;;10.73;5.88;;;14.50;99.90;;;;;;5023396;28;20102;-89
2023/09/26 02:20:28;;;;;;;9.50;5.57;;;14.40;99.90;;;;;;5039684;28;20040;-89
2023/09/26 02:22:54;;;;;;;10.73;5.45;;;14.30;99.90;;;;;;5040031;28;20123;-89
2023/09/26 02:25:20;;;;;;;11.75;8.90;;;14.20;99.90;;;;;;5040142;28;20037;-89
2023/09/26 02:27:47;;;;;;;10.45;5.60;;;14.30;99.90;;;;;;5039692;28;20496;-89
2023/09/26 02:30:17;;;;;;;12.52;6.43;;;14.20;99.90;;;;;;5023292;28;20037;-90
2023/09/26 02:32:43;;;;;;;10.48;5.85;;;14.10;99.90;;;;;;5023599;28;20124;-89
2023/09/26 02:35:14;;;;;;;10.07;5.55;;;14.10;99.90;;;;;;5023221;28;20124;-90
2023/09/26 02:37:39;;;;;;;11.45;9.05;;;14.10;99.90;;;;;;5023310;28;20061;-89
2023/09/26 02:40:09;;;;;;;10.50;5.32;;;14.10;99.90;;;;;;5019840;28;20045;-90
2023/09/26 02:42:36;;;;;;;9.40;5.00;;;14.10;99.90;;;;;;5038126;28;20037;-90
2023/09/26 02:45:02;;;;;;;11.90;10.00;;;14.00;99.90;;;;;;5019696;28;20047;-89
2023/09/26 02:47:28;;;;;;;12.40;9.57;;;14.00;99.90;;;;;;5036344;28;20036;-89
2023/09/26 02:49:54;;;;;;;10.40;5.03;;;14.10;99.90;;;;;;5036415;28;20044;-89
2023/09/26 02:52:21;;;;;;;10.27;6.13;;;14.00;99.90;;;;;;5020182;28;20041;-90
2023/09/26 02:54:47;;;;;;;11.57;9.50;;;13.90;99.90;;;;;;5020259;28;20562;-89
2023/09/26 02:57:14;;;;;;;11.30;9.32;;;14.00;99.90;;;;;;5036316;28;20040;-89
2023/09/26 02:59:40;;;;;;;9.75;4.85;;;13.90;99.90;;;;;;5019773;28;20052;-89
2023/09/26 03:02:06;;;;;;;11.02;9.18;;;13.90;99.90;;;;;;5019932;28;20404;-89
2023/09/26 03:04:32;;;;;;;16.70;9.93;;;13.80;99.90;;;;;;5019427;28;20094;-89
2023/09/26 03:06:57;;;;;;;11.30;9.63;;;13.90;99.90;;;;;;5020072;28;20041;-90
2023/09/26 03:09:23;;;;;;;13.18;5.13;;;13.90;99.90;;;;;;5019636;28;20037;-89
2023/09/26 03:11:49;;;;;;;13.70;9.82;;;13.80;99.90;;;;;;5036508;28;20044;-89
2023/09/26 03:14:15;;;;;;;9.65;5.25;;;13.80;99.90;;;;;;5020359;28;20037;-89
2023/09/26 03:16:40;;;;;;;10.45;4.65;;;13.80;99.90;;;;;;5040262;28;20045;-89
2023/09/26 03:19:07;;;;;;;10.90;6.20;;;13.70;99.90;;;;;;5021512;28;20418;-89
2023/09/26 03:21:33;;;;;;;12.02;9.80;;;13.70;99.90;;;;;;5035846;28;20045;-89
2023/09/26 03:23:58;;;;;;;14.35;10.27;;;13.70;99.90;;;;;;5019635;28;20040;-91
2023/09/26 03:26:24;;;;;;;10.70;5.90;;;13.70;99.90;;;;;;5035724;28;20076;-89
2023/09/26 03:28:49;;;;;;;11.68;6.15;;;13.70;99.90;;;;;;5035659;28;20041;-89
2023/09/26 03:31:15;;;;;;;11.52;9.55;;;13.60;99.90;;;;;;5035737;28;20040;-89
2023/09/26 03:33:41;;;;;;;12.02;9.95;;;13.70;99.90;;;;;;5019253;28;20037;-89
2023/09/26 03:36:07;;;;;;;10.02;6.00;;;13.70;99.90;;;;;;5036181;28;20035;-90
2023/09/26 03:38:33;;;;;;;11.60;5.70;;;13.60;99.90;;;;;;5018341;28;20041;-89
2023/09/26 03:40:59;;;;;;;9.77;4.85;;;13.50;99.90;;;;;;5019099;28;20041;-89
2023/09/26 03:43:26;;;;;;;9.40;4.57;;;13.40;99.90;;;;;;5018630;28;20522;-89
2023/09/26 03:46:00;;;;;;;13.07;10.35;;;13.30;99.90;;;;;;5035336;28;20033;-89
2023/09/26 03:48:26;;;;;;;12.98;10.73;;;13.40;99.90;;;;;;5018161;28;20566;-88
2023/09/26 03:50:52;;;;;;;14.27;11.15;;;13.50;99.90;;;;;;5018801;28;20442;-89
2023/09/26 03:53:17;;;;;;;10.23;5.88;;;13.50;99.90;;;;;;5018865;28;20123;-89
2023/09/26 03:55:43;;;;;;;11.35;6.10;;;13.40;99.90;;;;;;5035021;28;20120;-89
2023/09/26 03:58:09;;;;;;;11.48;6.63;;;13.30;99.90;;;;;;5018447;28;20048;-89
2023/09/26 04:00:34;;;;;;;12.52;10.65;;;13.30;99.90;;;;;;5018491;28;20419;-89
2023/09/26 04:03:01;;;;;;;12.27;9.70;;;13.40;99.90;;;;;;5019212;28;20076;-88
2023/09/26 04:05:27;;;;;;;12.45;10.35;;;13.40;99.90;;;;;;5018912;28;20033;-89
2023/09/26 04:07:53;;;;;;;15.10;10.68;;;13.50;99.90;;;;;;5034887;28;20052;-89
2023/09/26 04:10:19;;;;;;;10.82;5.78;;;13.50;99.90;;;;;;5034584;28;20063;-89
2023/09/26 04:12:44;;;;;;;10.40;4.82;;;13.40;99.90;;;;;;5018867;28;20090;-89
2023/09/26 04:15:10;;;;;;;8.80;4.25;;;13.30;99.90;;;;;;5035119;28;20048;-89
2023/09/26 04:17:37;;;;;;;8.20;4.13;;;13.20;99.90;;;;;;5034500;28;20041;-89
2023/09/26 04:20:13;;;;;;;10.88;4.80;;;13.10;99.90;;;;;;5018167;28;20040;-89
2023/09/26 04:22:38;;;;;;;15.23;10.25;;;13.00;99.90;;;;;;5051613;28;20558;-89
2023/09/26 04:25:04;;;;;;;12.70;10.45;;;13.10;99.90;;;;;;5018541;28;20077;-88
2023/09/26 04:27:30;;;;;;;12.50;10.75;;;13.20;99.90;;;;;;5034501;28;20516;-89
2023/09/26 04:29:56;;;;;;;11.02;6.07;;;13.20;99.90;;;;;;5034248;28;20045;-89
2023/09/26 04:32:22;;;;;;;9.68;5.53;;;13.20;99.90;;;;;;5034999;28;20036;-89
2023/09/26 04:34:48;;;;;;;13.50;10.57;;;13.10;99.90;;;;;;5018397;28;20083;-89
2023/09/26 04:37:13;;;;;;;10.55;5.13;;;13.10;99.90;;;;;;5034738;28;20041;-89
2023/09/26 04:39:39;;;;;;;12.27;10.82;;;13.10;99.90;;;;;;5034021;28;20047;-89
2023/09/26 04:42:05;;;;;;;14.52;11.52;;;13.10;99.90;;;;;;5018097;28;20041;-89
2023/09/26 04:44:31;;;;;;;11.48;5.80;;;13.10;99.90;;;;;;5034299;28;20036;-89
2023/09/26 04:46:57;;;;;;;10.73;5.30;;;13.10;99.90;;;;;;5017642;28;20045;-89
2023/09/26 04:49:23;;;;;;;12.50;11.20;;;13.00;99.90;;;;;;5017747;28;20103;-90
2023/09/26 04:51:48;;;;;;;14.60;10.70;;;13.00;99.90;;;;;;5034392;28;20409;-90
2023/09/26 04:54:14;;;;;;;11.95;10.43;;;13.10;99.90;;;;;;5017964;28;20068;-90
2023/09/26 04:56:40;;;;;;;10.63;5.43;;;13.10;99.90;;;;;;5017706;28;20059;-89
2023/09/26 04:59:05;;;;;;;11.02;5.97;;;13.10;99.90;;;;;;5033769;28;20049;-90
2023/09/26 05:01:31;;;;;;;12.00;5.72;;;13.00;99.90;;;;;;5017619;28;20040;-90
2023/09/26 05:03:57;;;;;;;10.95;6.63;;;12.90;99.90;;;;;;5034292;28;20073;-90
2023/09/26 05:06:22;;;;;;;11.20;6.25;;;12.90;99.90;;;;;;5034261;28;20090;-90
2023/09/26 05:08:50;;;;;;;10.32;5.82;;;12.90;99.90;;;;;;5033402;28;20037;-89
2023/09/26 05:11:16;;;;;;;12.18;10.32;;;12.90;99.90;;;;;;5034088;28;20507;-89
2023/09/26 05:13:43;;;;;;;13.05;6.57;;;13.00;99.90;;;;;;5033867;28;20040;-90
2023/09/26 05:16:09;;;;;;;14.00;11.02;;;13.00;99.90;;;;;;5017379;28;20106;-90
2023/09/26 05:18:36;;;;;;;10.27;6.47;;;13.00;99.90;;;;;;5016706;28;20478;-89
2023/09/26 05:21:06;;;;;;;12.18;10.10;;;13.00;99.90;;;;;;5030977;28;20116;-90
2023/09/26 05:23:31;;;;;;;12.27;5.68;;;13.10;99.90;;;;;;5039858;28;20029;-90
2023/09/26 05:26:09;;;;;;;10.02;6.25;;;13.10;99.90;;;;;;5027498;28;20041;-89
2023/09/26 05:28:34;;;;;;;11.18;5.80;;;13.00;99.90;;;;;;5046412;28;20171;-89
2023/09/26 05:31:00;;;;;;;12.60;5.05;;;13.00;99.90;;;;;;5035631;28;20101;-89
2023/09/26 05:33:26;;;;;;;12.73;10.45;;;13.00;99.90;;;;;;5042445;28;20140;-89
2023/09/26 05:35:53;;;;;;;12.00;6.22;;;13.10;99.90;;;;;;5029080;28;20041;-88
2023/09/26 05:38:20;;;;;;;13.00;5.93;;;13.20;99.90;;;;;;5008669;28;20053;-89
2023/09/26 05:40:46;;;;;;;11.15;5.25;;;13.10;99.90;;;;;;5014267;28;20072;-90
2023/09/26 05:43:12;;;;;;;13.63;10.75;;;13.10;99.90;;;;;;5017819;28;20460;-90
2023/09/26 05:45:37;;;;;;;9.45;5.45;;;13.20;99.90;;;;;;5017370;28;20496;-90
2023/09/26 05:48:04;;;;;;;12.13;10.82;;;13.20;99.90;;;;;;5018278;28;20499;-89
2023/09/26 05:50:30;;;;;;;10.77;5.40;;;13.30;99.90;;;;;;5042355;28;20060;-89
2023/09/26 05:52:56;;;;;;;10.25;5.65;;;13.30;99.90;;;;;;5047005;28;20074;-90
2023/09/26 05:55:21;;;;;;;11.38;5.93;;;13.20;99.90;;;;;;5051600;28;20432;-89
2023/09/26 05:57:48;;;;;;;14.23;10.75;;;13.20;99.90;;;;;;5033714;28;20171;-90
2023/09/26 06:00:15;;;;;;;11.15;6.05;;;13.30;99.90;;;;;;5033812;28;20072;-90
2023/09/26 06:02:41;;;;;;;11.35;5.90;;;13.30;99.90;;;;;;5033872;28;20123;-90
2023/09/26 06:05:07;;;;;;;13.25;11.63;;;13.30;99.90;;;;;;5033818;28;20130;-90
2023/09/26 06:07:33;;;;;;;12.00;10.73;;;13.40;99.90;;;;;;5033374;28;20052;-89
2023/09/26 06:09:59;;;;;;;12.57;10.32;;;13.50;99.90;;;;;;5050246;28;20116;-89
2023/09/26 06:12:25;;;;;;;10.07;5.93;;;13.50;99.90;;;;;;5030946;28;20068;-89
2023/09/26 06:14:51;;;;;;;11.45;6.22;;;13.50;99.90;;;;;;5011298;28;20127;-89
2023/09/26 06:17:17;;;;;;;12.52;6.15;;;13.50;99.90;;;;;;5014343;28;20200;-89
2023/09/26 06:19:46;;;;;;;13.85;11.23;;;13.50;99.90;;;;;;5051050;28;20135;-89
2023/09/26 06:22:16;;;;;;;16.25;11.10;;;13.60;99.90;;;;;;5018195;28;20179;-89
2023/09/26 06:24:42;;;;;;;13.38;10.90;;;13.60;99.90;;;;;;5017838;28;20048;-88
2023/09/26 06:27:07;;;;;;;10.80;5.40;;;13.70;99.90;;;;;;5034212;28;20496;-89
2023/09/26 06:29:37;;;;;;;12.98;6.07;;;13.70;99.90;;;;;;5017848;28;20124;-89
2023/09/26 06:32:02;;;;;;;11.55;6.00;;;13.60;99.90;;;;;;5018229;28;20033;-89
2023/09/26 06:34:28;;;;;;;10.48;6.25;;;13.60;99.90;;;;;;5009754;28;20042;-89
2023/09/26 06:36:53;;;;;;;11.40;6.45;;;13.60;99.90;;;;;;5034255;28;20561;-89
2023/09/26 06:39:19;;;;;;;12.57;11.27;;;13.60;99.90;;;;;;5017824;28;20041;-89
2023/09/26 06:41:45;;;;;;;10.02;5.50;;;13.70;99.90;;;;;;5020420;28;20065;-89
2023/09/26 06:44:10;;;;;;;10.02;6.13;;;13.70;99.90;;;;;;5036772;28;20041;-90
2023/09/26 06:46:36;;;;;;;15.15;12.15;;;13.70;99.90;;;;;;5020317;28;20071;-89
2023/09/26 06:49:03;;;;;;;13.07;11.52;;;13.80;99.90;;;;;;5036714;28;20489;-89
2023/09/26 06:51:30;;;;;;;14.45;11.60;;;13.90;99.90;;;;;;5036415;28;20496;-89
2023/09/26 06:53:56;;;;;;;13.85;11.02;;;13.90;99.90;;;;;;5054190;28;20037;-89
2023/09/26 06:56:22;;;;;;;14.30;12.80;;;14.00;99.90;;;;;;5028736;28;20095;-89
2023/09/26 06:58:48;;;;;;;11.95;6.20;;;14.00;99.90;;;;;;5027283;28;20041;-89
2023/09/26 07:01:14;;;;;;;11.20;6.10;;;14.00;99.90;;;;;;5036826;28;20484;-89
2023/09/26 07:03:41;;;;;;;14.38;11.18;;;13.90;99.90;;;;;;5019931;28;21409;-89
2023/09/26 07:06:11;;;;;;;13.50;6.47;;;14.00;99.90;;;;;;5019996;28;20094;-90
2023/09/26 07:08:38;;;;;;;13.07;10.57;;;14.00;99.90;;;;;;5019421;28;20045;-89
2023/09/26 07:11:04;;;;;;;11.63;7.03;;;14.00;99.90;;;;;;5036258;28;20112;-89
2023/09/26 07:13:30;;;;;;;13.15;11.13;;;14.10;99.90;;;;;;5019672;28;20036;-89
2023/09/26 07:16:03;;;;;;;12.63;10.60;;;14.10;99.90;;;;;;5019849;28;20186;-89
2023/09/26 07:18:33;;;;;;;11.27;5.90;;;14.30;99.90;;;;;;5037284;28;20051;-89
2023/09/26 07:21:05;;;;;;;15.02;10.75;;;14.20;99.90;;;;;;5023409;28;20033;-89
2023/09/26 07:23:35;;;;;;;10.75;6.15;;;14.30;99.90;;;;;;5027159;28;20076;-88
2023/09/26 07:26:09;;;;;;;10.77;6.07;;;14.30;99.90;;;;;;5040355;28;20118;-89
2023/09/26 07:28:35;;;;;;;13.20;8.15;;;14.30;99.90;;;;;;5042787;28;20037;-89
2023/09/26 07:31:00;;;;;;;12.98;7.55;;;14.30;99.90;;;;;;5042237;28;20381;-89
2023/09/26 07:33:28;;;;;;;12.10;10.80;;;14.40;99.90;;;;;;5036014;28;20565;-89
2023/09/26 07:35:54;;;;;;;13.85;11.38;;;14.40;99.90;;;;;;5036087;28;20408;-89
2023/09/26 07:38:19;;;;;;;13.27;11.65;;;14.50;99.90;;;;;;5035863;28;20538;-89
2023/09/26 07:40:45;;;;;;;14.93;11.82;;;14.60;99.90;;;;;;5019168;28;20573;-89
2023/09/26 07:43:11;;;;;;;10.25;6.28;;;14.70;99.90;;;;;;5019262;28;20040;-89
2023/09/26 07:45:39;;;;;;;15.35;11.52;;;14.70;99.90;;;;;;5035627;28;20048;-90
2023/09/26 07:48:06;;;;;;;12.35;10.98;;;14.80;99.90;;;;;;5019250;28;20045;-89
2023/09/26 07:50:31;;;;;;;14.38;10.82;;;14.80;99.90;;;;;;5053418;28;20118;-89
2023/09/26 07:52:57;;;;;;;11.15;5.85;;;14.90;99.90;;;;;;5053567;28;20438;-89
2023/09/26 07:55:24;;;;;;;12.80;10.55;;;14.90;99.90;;;;;;5019368;28;20033;-89
2023/09/26 07:57:50;;;;;;;13.75;7.80;;;15.00;99.90;;;;;;5018659;28;20076;-89
2023/09/26 08:00:15;;;;;;;12.13;7.25;;;15.00;99.90;;;;;;5052857;28;20076;-89
2023/09/26 08:02:41;;;;;;;11.77;7.10;;;15.00;99.90;;;;;;5018985;28;20044;-89
2023/09/26 08:05:07;;;;;;;14.13;12.15;;;15.00;99.90;;;;;;5019052;28;20041;-89
2023/09/26 08:07:33;;;;;;;15.52;12.52;;;15.10;99.90;;;;;;5034900;28;20044;-89
2023/09/26 08:10:00;;;;;;;13.48;7.50;;;15.30;99.90;;;;;;5035312;28;20041;-89
2023/09/26 08:12:30;;;;;;;16.30;13.13;;;15.30;99.90;;;;;;5035027;28;20041;-89
2023/09/26 08:14:56;;;;;;;14.32;12.82;;;15.40;99.90;;;;;;5018950;28;20037;-89
2023/09/26 08:17:23;;;;;;;15.45;8.63;;;15.40;99.90;;;;;;5015929;28;20045;-89
2023/09/26 08:19:48;;;;;;;12.05;6.55;;;15.50;99.90;;;;;;5035408;28;20496;-89
2023/09/26 08:22:14;;;;;;;14.27;8.68;;;15.50;99.90;;;;;;5038157;28;20056;-89
2023/09/26 08:24:39;;;;;;;14.68;12.25;;;15.50;99.90;;;;;;5032878;28;20273;-89
2023/09/26 08:27:05;;;;;;;13.82;9.07;;;15.60;99.90;;;;;;5037714;28;20534;-89
2023/09/26 08:29:31;;;;;;;12.93;7.65;;;15.70;99.90;;;;;;5016278;28;20034;-89
2023/09/26 08:31:57;;;;;;;14.70;12.20;;;15.70;99.90;;;;;;5018652;28;20056;-89
2023/09/26 08:34:23;;;;;;;12.05;7.50;;;15.80;99.90;;;;;;5034831;28;20078;-89
2023/09/26 08:36:49;;;;;;;13.55;7.60;;;15.80;99.90;;;;;;5034860;28;20033;-89
2023/09/26 08:39:15;;;;;;;12.38;10.93;;;15.80;99.90;;;;;;5034423;28;20103;-89
2023/09/26 08:41:45;;;;;;;12.02;10.70;;;15.90;99.90;;;;;;5017563;28;20052;-89
2023/09/26 08:44:11;;;;;;;13.05;10.95;;;16.10;99.90;;;;;;5009718;28;20036;-89
2023/09/26 08:46:38;;;;;;;11.98;10.70;;;16.20;99.90;;;;;;5018040;28;20041;-89
2023/09/26 08:49:05;;;;;;;10.38;6.05;;;16.20;99.90;;;;;;5034408;28;20111;-89
2023/09/26 08:51:30;;;;;;;12.27;9.88;;;16.20;99.90;;;;;;5018070;28;20041;-89
2023/09/26 08:53:56;;;;;;;12.35;10.57;;;16.30;99.90;;;;;;5018054;28;20040;-89
2023/09/26 08:56:21;;;;;;;13.77;10.70;;;16.40;99.90;;;;;;5034594;28;20044;-89
2023/09/26 08:58:50;;;;;;;12.23;7.25;;;16.40;99.90;;;;;;5034250;28;20404;-90
2023/09/26 09:01:18;;;;;;;12.45;9.90;;;16.40;99.90;;;;;;5017801;28;20051;-90
2023/09/26 09:03:44;;;;;;;11.73;6.65;;;16.50;99.90;;;;;;4993637;28;20432;-90
2023/09/26 09:06:09;;;;;;;11.60;9.77;;;16.50;99.90;;;;;;4977427;28;20060;-89
2023/09/26 09:08:35;;;;;;;10.57;6.60;;;16.60;99.90;;;;;;4993838;28;20037;-90
2023/09/26 09:11:00;;;;;;;12.85;10.23;;;16.60;99.90;;;;;;4993695;28;20557;-89
2023/09/26 09:13:27;;;;;;;13.93;9.82;;;16.70;99.90;;;;;;4993544;28;20053;-90
2023/09/26 09:16:10;;;;;;;13.57;10.02;;;16.80;99.90;;;;;;4977366;28;20038;-91
2023/09/26 09:18:58;;;;;;;12.38;9.82;;;16.90;99.90;;;;;;4977373;28;20397;-90
2023/09/26 09:21:31;;;;;;;12.23;9.60;;;17.00;99.90;;;;;;4993813;28;20125;-89
2023/09/26 09:24:05;;;;;;;12.27;9.65;;;17.00;99.90;;;;;;4977559;28;20171;-89
2023/09/26 09:26:33;;;;;;;11.70;9.65;;;17.10;99.90;;;;;;4993446;28;20048;-89
2023/09/26 09:29:15;;;;;;;13.63;10.15;;;17.30;99.90;;;;;;4993247;28;20146;-89
2023/09/26 09:31:41;;;;;;;12.45;10.43;;;17.40;99.90;;;;;;4993353;28;20046;-89
2023/09/26 09:34:07;;;;;;;13.02;9.98;;;17.40;99.90;;;;;;4974321;28;20216;-89
2023/09/26 09:36:32;;;;;;;12.48;9.63;;;17.50;99.90;;;;;;4993402;28;20457;-89
2023/09/26 09:38:58;;;;;;;12.05;9.40;;;17.60;99.90;;;;;;4994789;28;20548;-89
2023/09/26 09:41:23;;;;;;;13.18;10.00;;;17.70;99.90;;;;;;4991328;28;20054;-89
2023/09/26 09:43:50;;;;;;;12.20;7.13;;;17.80;99.90;;;;;;4996695;28;20033;-89
2023/09/26 09:46:16;;;;;;;11.57;9.75;;;17.80;99.90;;;;;;4984770;28;20093;-89
2023/09/26 09:48:44;;;;;;;12.30;10.25;;;17.90;99.90;;;;;;4992356;28;20088;-89
2023/09/26 09:51:15;;;;;;;13.25;9.90;;;18.00;99.90;;;;;;4990999;28;20491;-88
2023/09/26 09:53:42;;;;;;;11.75;9.60;;;18.00;99.90;;;;;;5005809;28;20064;-89
2023/09/26 09:56:09;;;;;;;13.18;10.15;;;18.00;99.90;;;;;;5018542;28;20037;-88
2023/09/26 09:58:44;;;;;;;12.55;10.40;;;18.10;99.90;;;;;;5034476;28;20092;-89
2023/09/26 10:01:12;;;;;;;12.30;10.15;;;18.10;99.90;;;;;;5018454;28;20504;-88
2023/09/26 10:03:38;;;;;;;11.63;9.38;;;18.20;99.90;;;;;;5018786;28;20043;-89
2023/09/26 10:06:06;;;;;;;13.15;8.05;;;18.20;99.90;;;;;;5014896;28;20499;-88
2023/09/26 10:08:33;;;;;;;12.48;10.00;;;18.30;99.90;;;;;;5018001;28;20408;-88
2023/09/26 10:11:01;;;;;;;12.10;9.65;;;18.30;99.90;;;;;;5034628;28;20060;-89
2023/09/26 10:13:27;;;;;;;13.73;10.52;;;18.50;99.90;;;;;;5027351;28;20083;-88
2023/09/26 10:16:11;;;;;;;13.63;9.80;;;18.60;99.90;;;;;;5044238;28;20029;-88
2023/09/26 10:18:39;;;;;;;14.23;10.32;;;18.80;99.90;;;;;;5017973;28;20033;-88
2023/09/26 10:21:21;;;;;;;13.35;9.43;;;18.90;99.90;;;;;;5038151;28;20709;-89
2023/09/26 10:24:05;;;;;;;12.32;8.88;;;19.00;99.90;;;;;;5024235;28;20055;-88
2023/09/26 10:26:48;;;;;;;14.10;9.35;;;19.10;99.90;;;;;;5024375;28;20520;-89
2023/09/26 10:29:27;;;;;;;12.45;9.35;;;19.10;99.90;;;;;;5028236;28;20576;-89
2023/09/26 10:31:58;;;;;;;11.57;9.07;;;19.20;99.90;;;;;;5024311;28;20033;-90
2023/09/26 10:34:28;;;;;;;11.35;8.63;;;19.30;99.90;;;;;;5033639;28;20029;-89
2023/09/26 10:36:56;;;;;;;11.75;7.65;;;19.40;99.90;;;;;;5049738;28;20045;-90
2023/09/26 10:39:36;;;;;;;11.52;7.85;;;19.50;99.90;;;;;;5037728;28;20061;-90
2023/09/26 10:42:11;;;;;;;11.57;7.05;;;19.60;99.90;;;;;;5038058;28;20033;-90
2023/09/26 10:44:43;;;;;;;11.32;7.93;;;19.60;99.90;;;;;;5037893;28;20131;-89
2023/09/26 10:47:12;;;;;;;12.27;7.82;;;19.60;99.90;;;;;;5021992;28;20036;-89
2023/09/26 10:49:38;;;;;;;13.88;7.78;;;19.70;99.90;;;;;;5024075;28;20025;-90
2023/09/26 10:52:08;;;;;;;11.73;8.05;;;19.70;99.90;;;;;;5043741;28;20033;-89
2023/09/26 10:54:35;;;;;;;12.27;7.63;;;19.80;99.90;;;;;;5026289;28;20037;-90
2023/09/26 10:57:00;;;;;;;10.75;7.35;;;19.80;99.90;;;;;;5027391;28;20036;-90
2023/09/26 10:59:30;;;;;;;11.15;7.70;;;19.90;99.90;;;;;;5047364;28;20072;-89
2023/09/26 11:01:58;;;;;;;11.35;7.85;;;19.90;99.90;;;;;;5032557;28;20568;-90
2023/09/26 11:04:31;;;;;;;11.75;7.45;;;20.00;99.90;;;;;;5019578;28;20048;-90
2023/09/26 11:06:59;;;;;;;11.80;8.25;;;20.00;99.90;;;;;;5042582;28;20123;-90
2023/09/26 11:09:25;;;;;;;12.45;7.43;;;20.10;99.90;;;;;;5025921;28;20043;-89
2023/09/26 11:11:54;;;;;;;10.85;7.75;;;20.10;99.90;;;;;;5022283;28;20037;-89
2023/09/26 11:14:20;;;;;;;10.65;7.65;;;20.20;99.90;;;;;;5042278;28;20041;-90
2023/09/26 11:16:46;;;;;;;11.25;6.90;;;20.20;99.90;;;;;;5020531;28;20041;-90
2023/09/26 11:19:12;;;;;;;10.00;6.95;;;20.30;99.90;;;;;;5036238;28;20040;-91
2023/09/26 11:21:37;;;;;;;11.40;6.95;;;20.40;99.90;;;;;;5038943;28;20116;-90
2023/09/26 11:24:23;;;;;;;11.25;7.10;;;20.50;99.90;;;;;;5042019;28;20037;-90
2023/09/26 11:26:51;;;;;;;10.93;6.80;;;20.50;99.90;;;;;;5036894;28;20045;-90
2023/09/26 11:29:18;;;;;;;9.48;6.22;;;20.60;99.90;;;;;;5043662;28;20040;-91
2023/09/26 11:31:44;;;;;;;11.35;7.28;;;20.70;99.90;;;;;;5045026;28;20036;-91
2023/09/26 11:34:11;;;;;;;10.20;6.90;;;20.80;99.90;;;;;;5028537;28;20052;-91
2023/09/26 11:36:40;;;;;;;11.73;6.70;;;20.90;99.90;;;;;;5026923;28;20492;-91
2023/09/26 11:39:10;;;;;;;13.32;7.15;;;20.90;99.90;;;;;;5027961;28;20082;-91
2023/09/26 11:41:36;;;;;;;12.48;7.40;;;20.90;99.90;;;;;;5025476;28;20560;-90
2023/09/26 11:44:12;;;;;;;9.40;6.88;;;21.00;99.90;;;;;;5028085;28;20127;-91
2023/09/26 11:46:39;;;;;;;11.63;6.88;;;21.00;99.90;;;;;;5041863;28;20522;-91
2023/09/26 11:49:05;;;;;;;10.38;6.68;;;21.00;99.90;;;;;;5027915;28;20040;-91
2023/09/26 11:51:30;;;;;;;13.05;6.50;;;21.00;99.90;;;;;;5027523;28;20037;-92
2023/09/26 11:53:56;;;;;;;9.93;6.30;;;21.00;99.80;;;;;;5044438;28;20036;-91
2023/09/26 11:56:28;;;;;;;9.52;6.45;;;21.00;99.90;;;;;;5024645;28;20087;-91
2023/09/26 11:58:54;;;;;;;10.85;6.28;;;21.00;99.90;;;;;;5039878;28;20044;-91
2023/09/26 12:01:20;;;;;;;9.45;5.90;;;21.00;99.90;;;;;;5027299;28;20040;-91
2023/09/26 12:03:46;;;;;;;10.45;6.22;;;21.10;99.90;;;;;;5022056;28;20250;-91
2023/09/26 12:06:12;;;;;;;10.40;5.85;;;21.10;99.50;;;;;;5027251;28;20033;-91
2023/09/26 12:08:38;;;;;;;11.88;5.57;;;21.20;97.40;;;;;;5027078;28;20033;-91
2023/09/26 12:11:04;;;;;;;10.65;5.45;;;21.20;99.00;;;;;;5026164;28;20048;-90
2023/09/26 12:13:31;;;;;;;12.88;6.07;;;21.30;99.80;;;;;;5035989;28;20036;-90
2023/09/26 12:15:57;;;;;;;8.63;5.53;;;21.40;99.90;;;;;;5018743;28;20037;-91
2023/09/26 12:18:23;;;;;;;9.77;5.50;;;21.50;98.40;;;;;;5018610;28;20044;-91
2023/09/26 12:20:53;;;;;;;9.52;5.20;;;21.60;98.00;;;;;;5016284;28;20049;-91
2023/09/26 12:23:21;;;;;;;11.43;6.05;;;21.60;97.90;;;;;;5016264;28;20094;-91
2023/09/26 12:25:47;;;;;;;9.48;5.65;;;21.70;95.50;;;;;;5015988;28;20321;-91
2023/09/26 12:28:13;;;;;;;9.95;5.22;;;21.80;94.10;;;;;;5015518;28;20070;-91
2023/09/26 12:30:40;;;;;;;10.13;5.80;;;21.80;92.40;;;;;;5015677;28;20041;-91
2023/09/26 12:33:06;;;;;;;10.02;5.85;;;21.80;92.60;;;;;;5032395;28;20040;-91
2023/09/26 12:35:32;;;;;;;9.82;5.40;;;21.90;93.10;;;;;;5050800;28;20033;-89